NWWW METAR and TAF weather

Enter ICAO airport designator
Station Type Date Time Source
NWWW METAR 2022/06/28 08:30 UTC NOAA

NWWW 280830Z AUTO VRB03KT 9999 BKN016 BKN022 OVC029 21/20 Q1016 TEMPO 4000 DZRA BKN011


Station Type Date Time Source
NWWW Decoded METAR 2022/06/28 08:30 UTC NOAA

La Tontouta Nlle-Caledonie , New Caledonia (NWWW) 22-01S 166-13E 14M
Jun 28, 2022 - 04:30 AM EDT / 2022.06.28 0830 UTC
Wind: Variable at 3 MPH (3 KT):0
Visibility: greater than 7 mile(s):0
Sky conditions: overcast
Temperature: 69 F (21 C)
Dew Point: 68 F (20 C)
Relative Humidity: 94%
Pressure (altimeter): 30.00 in. Hg (1016 hPa)
ob: NWWW 280830Z AUTO VRB03KT 9999 BKN016 BKN022 OVC029 21/20 Q1016 TEMPO 4000 DZRA BKN011
cycle: 8

Station Type Date Time Source
NWWW TAF 2022/06/28 06:47 UTC NOAA

TAF NWWW 280500Z 2806/2906 24006KT 9999 BKN050 PROB40
TEMPO 2806/2808 SHRA SCT020TCU BKN025 PROB40
TEMPO 2810/2820 4000 DZRA BKN011

Example: see airport list